Time;durP1;ratioP1;P1;durP2;ratioP2;P2;SDS_P1;SDS_P2;PMS_P1;PMS_P2;Temp;Humidity;BMP_temperature;BMP_pressure;BME280_temperature;BME280_humidity;BME280_pressure;Samples;Min_cycle;Max_cycle;Signal;HPM_P1;HPM_P2
2023/04/09 00:01:19;;;;;;;;;30.75;26.00;;;;;12.25;51.83;101604.53;5078627;28;45663;-85
2023/04/09 00:07:07;;;;;;;;;29.75;26.25;;;;;12.20;51.65;101598.69;5078309;28;45527;-84
2023/04/09 00:09:32;;;;;;;;;31.50;27.25;;;;;12.24;51.92;101599.34;5076992;28;46715;-78
2023/04/09 00:11:57;;;;;;;;;30.50;28.50;;;;;12.17;51.85;101585.75;5076265;28;45792;-80
2023/04/09 00:14:23;;;;;;;;;30.75;25.00;;;;;12.23;52.01;101602.91;5076628;28;45641;-80
2023/04/09 00:16:49;;;;;;;;;32.25;28.00;;;;;12.21;52.07;101595.13;5075137;28;45566;-82
2023/04/09 00:22:36;;;;;;;;;30.00;24.75;;;;;12.22;51.97;101598.59;5076827;28;46257;-80
2023/04/09 00:25:01;;;;;;;;;26.50;24.25;;;;;12.18;52.12;101590.91;5077530;28;45653;-80
2023/04/09 00:27:26;;;;;;;;;26.50;23.75;;;;;12.17;51.92;101583.97;5076762;28;45704;-84
2023/04/09 00:29:55;;;;;;;;;34.50;28.25;;;;;12.20;52.19;101590.78;5076800;28;46437;-83
2023/04/09 00:32:20;;;;;;;;;38.75;30.50;;;;;12.04;51.96;101567.25;5076326;28;45736;-85
2023/04/09 00:34:47;;;;;;;;;32.50;30.00;;;;;12.02;52.38;101565.69;5076702;28;45487;-82
2023/04/09 00:37:12;;;;;;;;;30.00;24.00;;;;;12.18;52.38;101593.53;5076137;28;45907;-81
2023/04/09 00:39:37;;;;;;;;;30.25;26.00;;;;;12.08;52.09;101574.03;5076199;28;46385;-81
2023/04/09 00:42:03;;;;;;;;;31.25;26.75;;;;;12.16;52.13;101586.69;5076408;28;46192;-83
2023/04/09 00:44:28;;;;;;;;;28.00;25.50;;;;;12.15;52.49;101583.19;5076503;28;45488;-83
2023/04/09 00:46:54;;;;;;;;;29.50;25.25;;;;;12.13;52.52;101579.84;5058385;28;45534;-82
2023/04/09 00:52:41;;;;;;;;;26.50;24.25;;;;;12.12;52.43;101585.19;5076156;28;45801;-82
2023/04/09 00:55:08;;;;;;;;;34.75;26.50;;;;;12.03;52.59;101570.84;5091492;27;45605;-79
2023/04/09 00:57:34;;;;;;;;;33.50;30.00;;;;;12.08;52.45;101584.53;5076052;28;45808;-78
2023/04/09 01:00:00;;;;;;;;;35.50;34.00;;;;;12.07;52.45;101576.75;5075372;28;45722;-78
2023/04/09 01:02:27;;;;;;;;;43.00;37.75;;;;;12.05;52.46;101578.63;5075763;28;45790;-77
2023/04/09 01:08:19;;;;;;;;;49.00;38.50;;;;;12.01;52.75;101569.25;5075547;28;45495;-79
2023/04/09 01:11:05;;;;;;;;;40.50;35.00;;;;;12.00;52.67;101568.41;5075557;28;45737;-80
2023/04/09 01:13:42;;;;;;;;;38.00;35.00;;;;;11.94;52.76;101565.31;5075640;28;46454;-79
2023/04/09 01:16:10;;;;;;;;;34.50;30.50;;;;;11.85;52.77;101550.97;5075567;28;45562;-79
2023/04/09 01:18:49;;;;;;;;;38.00;30.00;;;;;11.91;52.70;101560.25;5057652;28;45568;-82
2023/04/09 01:21:19;;;;;;;;;30.50;26.25;;;;;12.00;52.92;101572.81;5057880;28;47607;-79
2023/04/09 01:24:11;;;;;;;;;30.75;25.75;;;;;11.92;53.17;101562.78;5076390;28;46113;-80
2023/04/09 01:27:05;;;;;;;;;35.50;25.75;;;;;11.98;52.88;101566.81;5076771;28;45863;-82
2023/04/09 01:29:33;;;;;;;;;29.50;25.00;;;;;11.73;53.03;101534.19;5076328;28;45680;-82
2023/04/09 01:32:00;;;;;;;;;29.75;24.75;;;;;11.93;53.09;101563.63;5075645;28;46604;-82
2023/04/09 01:34:27;;;;;;;;;34.25;27.50;;;;;11.91;53.10;101563.72;5075911;28;46152;-81
2023/04/09 01:36:56;;;;;;;;;28.50;25.50;;;;;11.86;52.96;101554.44;5075974;28;45633;-81
2023/04/09 01:39:23;;;;;;;;;33.75;28.50;;;;;11.82;53.17;101552.94;5077552;28;45516;-80
2023/04/09 01:41:52;;;;;;;;;29.50;24.75;;;;;11.89;53.38;101562.97;5077830;28;46931;-80
2023/04/09 01:44:19;;;;;;;;;32.00;27.00;;;;;11.74;53.45;101538.50;5076404;28;46028;-80
2023/04/09 01:46:48;;;;;;;;;28.75;25.00;;;;;11.88;53.18;101563.03;5075811;28;45826;-81
2023/04/09 01:49:15;;;;;;;;;32.75;27.00;;;;;11.86;53.36;101555.28;5075513;28;45598;-82
2023/04/09 01:51:40;;;;;;;;;32.00;28.25;;;;;11.90;53.34;101555.94;5075751;28;45628;-83
2023/04/09 01:54:06;;;;;;;;;25.25;23.25;;;;;11.82;53.42;101551.16;5076111;28;45693;-79
2023/04/09 01:56:46;;;;;;;;;32.50;27.00;;;;;11.89;53.29;101554.22;5057069;28;45741;-81
2023/04/09 01:59:12;;;;;;;;;31.00;25.25;;;;;11.78;53.64;101540.00;5075202;28;45688;-81
2023/04/09 02:01:45;;;;;;;;;28.00;24.50;;;;;11.82;53.71;101550.31;5074932;28;45573;-83
2023/04/09 02:04:23;;;;;;;;;31.50;27.00;;;;;11.80;53.80;101544.31;5075121;28;46193;-82
2023/04/09 02:06:59;;;;;;;;;28.75;26.50;;;;;11.81;53.64;101554.72;5075217;28;45472;-81
2023/04/09 02:09:29;;;;;;;;;29.25;26.50;;;;;11.78;53.71;101547.00;5076056;28;45441;-81
2023/04/09 02:11:58;;;;;;;;;33.50;29.50;;;;;11.77;53.77;101543.53;5077008;28;46444;-82
2023/04/09 02:14:25;;;;;;;;;30.00;25.50;;;;;11.47;53.81;101500.75;5077780;28;46079;-82
2023/04/09 02:16:52;;;;;;;;;29.75;24.75;;;;;11.55;54.08;101516.06;5076923;28;45745;-79
2023/04/09 02:19:17;;;;;;;;;29.50;25.75;;;;;11.68;54.14;101535.34;5076648;28;45754;-84
2023/04/09 02:21:43;;;;;;;;;35.75;27.25;;;;;11.63;54.04;101534.78;5075875;28;46220;-83
2023/04/09 02:24:09;;;;;;;;;34.25;26.75;;;;;11.66;53.98;101539.88;5075556;28;45676;-84
2023/04/09 02:26:34;;;;;;;;;39.25;31.25;;;;;11.66;54.26;101532.81;5075316;28;45638;-79
2023/04/09 02:29:00;;;;;;;;;36.00;31.00;;;;;11.58;54.24;101515.84;5074822;28;45655;-78
2023/04/09 02:31:25;;;;;;;;;34.00;28.25;;;;;11.64;54.32;101524.22;5074444;28;46260;-79
2023/04/09 02:33:51;;;;;;;;;27.00;23.00;;;;;11.64;54.36;101521.59;5074439;28;46366;-77
2023/04/09 02:36:16;;;;;;;;;32.25;25.50;;;;;11.63;54.22;101525.16;5074112;28;45867;-79
2023/04/09 02:38:42;;;;;;;;;29.50;25.75;;;;;11.53;54.54;101516.16;5074204;28;45607;-81
2023/04/09 02:41:08;;;;;;;;;28.75;26.50;;;;;11.58;54.48;101521.97;5073768;28;47421;-81
2023/04/09 02:43:34;;;;;;;;;36.00;30.00;;;;;11.56;54.40;101518.56;5074318;28;46437;-80
2023/04/09 02:45:59;;;;;;;;;29.75;26.50;;;;;11.52;54.48;101517.06;5074234;28;45480;-79
2023/04/09 02:48:25;;;;;;;;;36.00;31.00;;;;;11.51;54.41;101520.63;5072782;28;45996;-79
2023/04/09 02:54:12;;;;;;;;;37.00;31.50;;;;;11.36;54.47;101501.41;5076180;28;45704;-79
2023/04/09 02:56:37;;;;;;;;;28.50;25.75;;;;;11.46;54.67;101517.44;5075512;28;45522;-80
2023/04/09 02:59:03;;;;;;;;;29.25;26.25;;;;;11.32;54.76;101501.69;5075907;28;45544;-78
2023/04/09 03:01:28;;;;;;;;;35.75;26.25;;;;;11.42;54.84;101515.94;5055586;28;47721;-81
2023/04/09 03:03:53;;;;;;;;;27.25;24.75;;;;;11.23;54.92;101489.09;5073992;28;45602;-83
2023/04/09 03:09:40;;;;;;;;;31.75;27.00;;;;;11.33;54.81;101509.47;5073733;28;45635;-83
2023/04/09 03:12:06;;;;;;;;;32.50;28.50;;;;;11.34;55.05;101502.44;5055227;28;46581;-80
2023/04/09 03:14:31;;;;;;;;;33.50;26.75;;;;;11.38;55.27;101503.09;5055325;28;46353;-79
2023/04/09 03:16:58;;;;;;;;;28.50;27.50;;;;;11.37;55.16;101507.50;5073442;28;45518;-79
2023/04/09 03:19:23;;;;;;;;;28.00;24.25;;;;;11.36;55.05;101501.41;5073374;28;45546;-78
2023/04/09 03:25:10;;;;;;;;;31.25;29.00;;;;;11.31;55.26;101498.22;5073782;28;46180;-80
2023/04/09 03:27:36;;;;;;;;;29.25;26.50;;;;;11.33;55.41;101508.63;5074018;28;45501;-78
2023/04/09 03:30:02;;;;;;;;;34.00;31.00;;;;;11.32;55.46;101499.06;5073700;28;45591;-80
2023/04/09 03:32:27;;;;;;;;;36.75;31.25;;;;;11.24;55.03;101485.56;5073217;28;45664;-79
2023/04/09 03:34:52;;;;;;;;;34.25;28.50;;;;;11.31;55.29;101495.59;5073635;28;46254;-79
2023/04/09 03:37:18;;;;;;;;;29.50;26.50;;;;;11.27;55.32;101491.47;5073421;28;45643;-80
2023/04/09 03:39:43;;;;;;;;;40.00;31.25;;;;;11.31;55.43;101490.34;5074102;28;45609;-78
2023/04/09 03:42:08;;;;;;;;;35.25;31.50;;;;;11.32;55.50;101497.28;5073971;28;46391;-80
2023/04/09 03:44:34;;;;;;;;;33.25;29.25;;;;;11.31;55.43;101486.88;5073762;28;46125;-77
2023/04/09 03:46:59;;;;;;;;;32.50;26.25;;;;;11.31;55.56;101492.13;5073663;28;45632;-78
2023/04/09 03:49:25;;;;;;;;;37.50;28.25;;;;;11.31;55.61;101489.50;5073469;28;45579;-78
2023/04/09 03:55:13;;;;;;;;;29.00;26.50;;;;;11.29;55.54;101494.84;5075105;28;45530;-79
2023/04/09 03:57:38;;;;;;;;;34.00;28.50;;;;;11.28;55.74;101485.28;5077793;28;45525;-80
2023/04/09 04:00:05;;;;;;;;;33.25;28.25;;;;;11.23;55.82;101476.00;5075648;28;45506;-79
2023/04/09 04:02:32;;;;;;;;;32.00;29.00;;;;;11.27;55.87;101488.00;5077109;28;45534;-78
2023/04/09 04:04:58;;;;;;;;;39.00;35.00;;;;;11.25;55.75;101480.22;5077073;28;46172;-78
2023/04/09 04:10:45;;;;;;;;;32.75;28.25;;;;;10.89;55.77;101422.97;5076662;28;45691;-79
2023/04/09 04:13:10;;;;;;;;;34.25;29.25;;;;;11.15;56.15;101459.88;5076782;28;46664;-81
2023/04/09 04:15:43;;;;;;;;;35.25;29.25;;;;;11.01;55.86;101442.38;5076267;28;46521;-80
2023/04/09 04:18:09;;;;;;;;;30.50;26.50;;;;;11.19;56.06;101467.47;5075929;28;45636;-82
2023/04/09 04:20:36;;;;;;;;;40.50;30.50;;;;;11.20;56.15;101476.19;5076767;28;45749;-83
2023/04/09 04:23:03;;;;;;;;;36.50;31.75;;;;;11.19;56.24;101474.50;5076671;28;45772;-81
2023/04/09 04:25:28;;;;;;;;;35.00;30.00;;;;;11.19;56.18;101479.75;5076381;28;46142;-82
2023/04/09 04:27:54;;;;;;;;;36.00;30.00;;;;;11.08;56.30;101461.19;5076312;28;45799;-83
2023/04/09 04:30:20;;;;;;;;;34.50;30.75;;;;;11.12;56.09;101479.25;5075022;28;45843;-82
2023/04/09 04:32:46;;;;;;;;;40.75;34.25;;;;;11.12;56.36;101478.44;5074872;28;45705;-83
2023/04/09 04:35:11;;;;;;;;;26.50;25.50;;;;;10.91;56.53;101441.19;5075413;28;45583;-82
2023/04/09 04:40:58;;;;;;;;;37.75;33.00;;;;;10.88;56.07;101444.84;5080047;28;45938;-80
2023/04/09 04:43:24;;;;;;;;;40.50;31.75;;;;;11.08;56.25;101484.78;5078727;28;46459;-78
2023/04/09 04:45:49;;;;;;;;;36.00;30.25;;;;;10.98;56.50;101478.38;5076331;28;45763;-81
2023/04/09 04:48:14;;;;;;;;;38.50;34.25;;;;;11.04;56.50;101491.13;5074713;28;45887;-82
2023/04/09 04:50:40;;;;;;;;;29.50;27.25;;;;;11.02;56.68;101488.59;5074866;28;45683;-79
2023/04/09 04:53:05;;;;;;;;;34.75;30.00;;;;;11.00;56.59;101489.63;5074689;28;45683;-80
2023/04/09 04:55:30;;;;;;;;;35.50;30.75;;;;;10.92;56.54;101485.69;5075422;28;46062;-79
2023/04/09 04:57:56;;;;;;;;;36.50;30.75;;;;;10.93;56.91;101487.38;5058589;28;45835;-79
2023/04/09 05:00:21;;;;;;;;;37.75;36.00;;;;;10.90;56.78;101489.34;5076555;28;45512;-82
2023/04/09 05:02:46;;;;;;;;;34.00;32.25;;;;;10.93;56.84;101487.38;5074905;28;45530;-82
2023/04/09 05:05:12;;;;;;;;;31.50;27.25;;;;;10.92;56.90;101485.69;5074850;28;45637;-83
2023/04/09 05:10:59;;;;;;;;;40.25;36.00;;;;;10.89;56.94;101496.38;5075424;28;45616;-77
2023/04/09 05:13:24;;;;;;;;;37.50;32.00;;;;;10.90;56.95;101499.81;5076028;28;45619;-81
2023/04/09 05:15:50;;;;;;;;;42.00;34.50;;;;;10.92;56.98;101500.56;5077330;28;45771;-79
2023/04/09 05:18:15;;;;;;;;;40.75;34.75;;;;;10.87;57.46;101497.38;5075754;28;45677;-79
2023/04/09 05:20:41;;;;;;;;;38.75;34.75;;;;;10.83;57.15;101491.47;5075685;28;45558;-76
2023/04/09 05:26:28;;;;;;;;;47.50;36.50;;;;;10.87;57.20;101500.00;5075454;28;45793;-80
2023/04/09 05:28:53;;;;;;;;;47.00;39.25;;;;;10.87;57.34;101500.00;5077538;28;45652;-77
2023/04/09 05:31:18;;;;;;;;;55.50;45.00;;;;;10.87;57.58;101513.09;5077748;28;45830;-77
2023/04/09 05:33:44;;;;;;;;;54.75;43.75;;;;;10.78;57.41;101506.63;5076014;28;45691;-79
2023/04/09 05:36:15;;;;;;;;;58.50;46.75;;;;;10.79;57.16;101508.31;5074959;28;47051;-78
2023/04/09 05:42:02;;;;;;;;;50.25;42.75;;;;;10.82;57.27;101515.13;5074912;28;45524;-76
2023/04/09 05:44:28;;;;;;;;;62.50;45.75;;;;;10.80;57.12;101523.09;5074988;28;45491;-77
2023/04/09 05:46:53;;;;;;;;;64.25;45.00;;;;;10.80;57.21;101519.63;5075061;28;45582;-75
2023/04/09 05:49:19;;;;;;;;;58.00;45.50;;;;;10.79;57.59;101510.94;5074668;28;45630;-77
2023/04/09 05:51:44;;;;;;;;;62.50;45.50;;;;;10.73;57.46;101506.03;5075122;28;45682;-79
2023/04/09 05:54:09;;;;;;;;;53.00;41.25;;;;;10.80;57.63;101519.63;5074767;28;46774;-79
2023/04/09 05:56:35;;;;;;;;;45.00;37.75;;;;;10.80;57.31;101517.00;5074647;28;45601;-77
2023/04/09 05:59:00;;;;;;;;;54.00;43.00;;;;;10.66;57.61;101495.97;5055639;28;45670;-77
2023/04/09 06:01:26;;;;;;;;;46.25;37.00;;;;;10.75;57.51;101516.41;5074900;28;45692;-83
2023/04/09 06:03:51;;;;;;;;;43.75;36.75;;;;;10.74;57.50;101512.94;5074668;28;46339;-82
2023/04/09 06:06:17;;;;;;;;;40.75;36.50;;;;;10.64;57.28;101495.22;5075003;28;46300;-79
2023/04/09 06:12:03;;;;;;;;;36.00;30.75;;;;;10.82;57.47;101526.47;5075776;28;45634;-77
2023/04/09 06:14:31;;;;;;;;;37.00;33.25;;;;;10.78;57.17;101519.72;5074939;28;46209;-76
2023/04/09 06:16:57;;;;;;;;;41.75;31.25;;;;;10.79;57.21;101520.56;5074686;28;46203;-78
2023/04/09 06:19:26;;;;;;;;;33.75;32.00;;;;;10.87;56.99;101531.44;5074194;28;45812;-78
2023/04/09 06:21:51;;;;;;;;;53.25;43.25;;;;;10.89;56.97;101530.44;5074409;28;45735;-76
2023/04/09 06:27:38;;;;;;;;;44.75;38.25;;;;;10.97;57.04;101543.09;5073940;28;45758;-76
2023/04/09 06:30:04;;;;;;;;;48.00;38.00;;;;;10.91;57.00;101527.72;5074044;28;45623;-76
2023/04/09 06:32:29;;;;;;;;;41.50;37.50;;;;;10.91;56.94;101518.06;5073644;28;45631;-76
2023/04/09 06:34:55;;;;;;;;;42.25;36.00;;;;;11.05;56.80;101532.16;5073806;28;46371;-76
2023/04/09 06:37:20;;;;;;;;;48.25;39.50;;;;;10.99;56.76;101522.03;5073870;28;46109;-79
2023/04/09 06:39:45;;;;;;;;;39.75;36.00;;;;;11.04;56.73;101528.69;5055649;28;45543;-76
2023/04/09 06:42:11;;;;;;;;;43.25;36.25;;;;;11.13;56.93;101532.56;5074568;28;45835;-81
2023/04/09 06:44:36;;;;;;;;;44.50;38.75;;;;;11.14;57.09;101534.25;5074413;28;46498;-80
2023/04/09 06:47:01;;;;;;;;;40.50;35.75;;;;;11.14;56.93;101527.22;5074411;28;45741;-77
2023/04/09 06:49:27;;;;;;;;;48.25;38.75;;;;;11.19;57.13;101530.41;5073817;28;45761;-78
2023/04/09 06:51:52;;;;;;;;;39.50;36.00;;;;;11.20;56.89;101531.25;5073810;28;45636;-79
2023/04/09 06:57:39;;;;;;;;;41.50;35.25;;;;;11.23;56.95;101533.69;5073467;28;45716;-76
2023/04/09 07:00:05;;;;;;;;;44.75;38.75;;;;;11.20;57.01;101519.00;5073398;28;45614;-76
2023/04/09 07:02:31;;;;;;;;;53.75;39.25;;;;;11.22;57.47;101534.66;5073627;28;45636;-77
2023/04/09 07:04:56;;;;;;;;;54.00;38.50;;;;;11.27;57.22;101541.31;5073602;28;45623;-76
2023/04/09 07:07:22;;;;;;;;;46.50;39.00;;;;;11.27;57.35;101535.22;5055399;28;46084;-77
2023/04/09 07:13:10;;;;;;;;;48.25;38.75;;;;;11.24;57.14;101532.75;5073607;28;45588;-78
2023/04/09 07:15:36;;;;;;;;;50.75;39.75;;;;;11.30;57.14;101546.38;5089331;27;46611;-80
2023/04/09 07:18:01;;;;;;;;;49.75;38.75;;;;;11.33;57.16;101542.75;5073476;28;46115;-77
2023/04/09 07:20:27;;;;;;;;;48.50;40.00;;;;;11.37;56.97;101536.38;5073610;28;45935;-78
2023/04/09 07:22:52;;;;;;;;;46.50;38.75;;;;;11.26;56.72;101512.53;5074363;28;45494;-80
2023/04/09 07:28:41;;;;;;;;;47.25;38.50;;;;;11.48;57.04;101528.69;5072905;28;46361;-79
2023/04/09 07:31:06;;;;;;;;;48.50;39.50;;;;;11.55;56.96;101537.88;5073021;28;45512;-81
2023/04/09 07:33:32;;;;;;;;;55.00;39.25;;;;;11.53;56.98;101526.66;5073783;28;45647;-81
2023/04/09 07:35:58;;;;;;;;;53.75;41.00;;;;;11.60;56.81;101525.34;5076366;28;47592;-79
2023/04/09 07:41:46;;;;;;;;;45.00;36.75;;;;;11.71;56.99;101527.31;5076826;28;45682;-76
2023/04/09 07:44:12;;;;;;;;;50.00;40.00;;;;;11.76;56.93;101536.63;5077937;28;45619;-77
2023/04/09 07:46:38;;;;;;;;;54.75;40.75;;;;;11.82;56.89;101537.19;5076898;28;46453;-76
2023/04/09 07:49:04;;;;;;;;;48.00;37.75;;;;;11.87;56.69;101540.38;5076531;28;46112;-76
2023/04/09 07:51:30;;;;;;;;;40.25;35.00;;;;;11.91;56.74;101542.72;5077114;28;45519;-78
2023/04/09 07:57:17;;;;;;;;;40.75;37.00;;;;;12.00;56.48;101536.88;5076447;28;45621;-76
2023/04/09 07:59:42;;;;;;;;;30.75;27.75;;;;;12.04;56.64;101524.41;5058028;28;46072;-77
2023/04/09 08:02:08;;;;;;;;;42.75;36.00;;;;;12.13;56.58;101536.97;5076006;28;45796;-73
2023/04/09 08:04:33;;;;;;;;;42.00;38.25;;;;;12.12;56.58;101524.78;5075788;28;45826;-76
2023/04/09 08:06:59;;;;;;;;;42.25;37.00;;;;;12.23;56.56;101537.22;5075948;28;47331;-74
2023/04/09 08:12:47;;;;;;;;;30.00;29.75;;;;;12.35;56.23;101539.94;5076005;28;45941;-75
2023/04/09 08:15:13;;;;;;;;;39.25;31.75;;;;;12.34;56.28;101526.88;5076371;28;45813;-73
2023/04/09 08:17:38;;;;;;;;;38.00;33.25;;;;;12.45;56.10;101541.03;5075482;28;46971;-76
2023/04/09 08:20:04;;;;;;;;;33.25;30.75;;;;;12.45;56.24;101535.78;5057557;28;47017;-75
2023/04/09 08:22:30;;;;;;;;;38.50;29.50;;;;;12.53;56.10;101535.28;5076057;28;45844;-73
2023/04/09 08:28:17;;;;;;;;;37.75;31.00;;;;;12.67;56.37;101544.91;5075369;28;46019;-76
2023/04/09 08:30:43;;;;;;;;;40.00;33.00;;;;;12.69;55.88;101535.13;5057422;28;47097;-77
2023/04/09 08:33:08;;;;;;;;;32.25;29.50;;;;;12.71;55.84;101531.47;5057298;28;45936;-74
2023/04/09 08:35:35;;;;;;;;;37.50;30.75;;;;;12.75;55.71;101526.84;5075650;28;45756;-79
2023/04/09 08:38:03;;;;;;;;;39.75;34.00;;;;;12.88;55.33;101538.25;5077106;28;46858;-83
2023/04/09 08:43:51;;;;;;;;;34.00;28.75;;;;;12.97;55.18;101537.63;5075994;28;45884;-78
2023/04/09 08:46:18;;;;;;;;;30.75;27.75;;;;;13.01;55.39;101537.31;5074780;28;45675;-75
2023/04/09 08:48:44;;;;;;;;;34.25;32.00;;;;;13.06;55.40;101537.03;5074840;28;45641;-74
2023/04/09 08:51:18;;;;;;;;;42.00;35.25;;;;;13.11;55.28;101528.84;5075097;28;46348;-73
2023/04/09 08:53:46;;;;;;;;;31.00;29.25;;;;;13.16;54.95;101525.00;5057088;28;45862;-74
2023/04/09 08:59:36;;;;;;;;;35.50;30.50;;;;;13.30;54.91;101526.69;5074835;28;46115;-75
2023/04/09 09:02:10;;;;;;;;;34.50;32.25;;;;;13.36;54.64;101516.56;5074963;28;46549;-75
2023/04/09 09:04:49;;;;;;;;;31.50;27.25;;;;;13.44;54.23;101522.16;5074962;28;45874;-75
2023/04/09 09:07:15;;;;;;;;;28.75;27.25;;;;;13.50;54.71;101518.25;5075405;28;45793;-74
2023/04/09 09:09:52;;;;;;;;;29.25;25.00;;;;;13.52;54.40;101499.72;5075307;28;45560;-74
2023/04/09 09:15:39;;;;;;;;;31.00;28.50;;;;;13.58;54.38;101480.88;5075046;28;45827;-74
2023/04/09 09:18:06;;;;;;;;;30.00;28.50;;;;;13.68;54.12;101492.44;5075253;28;45638;-75
2023/04/09 09:20:31;;;;;;;;;31.25;25.50;;;;;13.81;53.48;101501.19;5075032;28;46756;-75
2023/04/09 09:22:56;;;;;;;;;26.75;25.00;;;;;13.83;53.81;101504.53;5075148;28;45958;-76
2023/04/09 09:25:23;;;;;;;;;31.50;26.00;;;;;13.90;53.77;101508.44;5075168;28;45794;-73
2023/04/09 09:27:49;;;;;;;;;26.25;24.00;;;;;13.99;53.18;101506.94;5074676;28;45530;-74
2023/04/09 09:30:26;;;;;;;;;28.75;24.25;;;;;14.05;53.11;101511.78;5074463;28;46819;-75
2023/04/09 09:32:52;;;;;;;;;24.75;21.00;;;;;14.14;52.96;101519.03;5074118;28;46330;-74
2023/04/09 09:35:18;;;;;;;;;25.25;23.00;;;;;14.20;52.87;101508.88;5074586;28;45878;-74
2023/04/09 09:37:43;;;;;;;;;30.50;28.00;;;;;14.25;53.14;101496.22;5074707;28;45626;-74
2023/04/09 09:40:10;;;;;;;;;26.50;25.00;;;;;14.29;52.62;101486.31;5074104;28;46482;-74
2023/04/09 09:45:57;;;;;;;;;28.00;19.25;;;;;14.48;52.29;101484.03;5074730;28;45591;-75
2023/04/09 09:48:22;;;;;;;;;24.00;20.50;;;;;14.56;51.78;101480.84;5074411;28;45646;-75
2023/04/09 09:50:49;;;;;;;;;20.00;18.00;;;;;14.58;52.21;101479.75;5074609;28;46315;-74
2023/04/09 09:53:19;;;;;;;;;21.50;19.50;;;;;14.69;51.79;101484.22;5074126;28;47092;-74
2023/04/09 09:55:51;;;;;;;;;20.75;17.00;;;;;14.76;51.63;101495.19;5074226;28;45665;-73
2023/04/09 09:58:27;;;;;;;;;22.25;18.50;;;;;14.82;50.90;101485.03;5073683;28;45751;-76
2023/04/09 10:00:52;;;;;;;;;21.25;19.00;;;;;14.86;51.02;101481.19;5055805;28;47628;-74
2023/04/09 10:03:26;;;;;;;;;20.25;17.00;;;;;14.93;50.47;101487.69;5074272;28;47159;-75
2023/04/09 10:05:52;;;;;;;;;20.50;16.50;;;;;14.95;50.62;101469.94;5074388;28;45759;-75
2023/04/09 10:08:20;;;;;;;;;18.75;16.25;;;;;15.04;50.59;101477.16;5074126;28;45713;-74
2023/04/09 10:10:47;;;;;;;;;21.00;18.25;;;;;15.11;50.00;101475.72;5074234;28;46372;-74
2023/04/09 10:16:34;;;;;;;;;23.25;18.75;;;;;15.22;49.62;101480.22;5073882;28;45781;-74
2023/04/09 10:19:00;;;;;;;;;15.75;14.25;;;;;15.23;49.87;101473.13;5073943;28;45656;-75
2023/04/09 10:21:40;;;;;;;;;16.50;15.50;;;;;15.31;49.31;101479.50;5073391;28;47533;-75
2023/04/09 10:24:07;;;;;;;;;17.25;14.00;;;;;15.32;49.31;101469.78;5073112;28;46245;-75
2023/04/09 10:26:34;;;;;;;;;19.75;16.50;;;;;15.38;49.40;101469.31;5073215;28;45632;-75
2023/04/09 10:29:12;;;;;;;;;14.25;12.50;;;;;15.42;49.39;101465.47;5072730;28;45823;-74
2023/04/09 10:31:52;;;;;;;;;17.50;15.00;;;;;15.48;49.30;101462.34;5072540;28;46528;-75
2023/04/09 10:34:27;;;;;;;;;18.25;16.50;;;;;15.47;48.67;101458.88;5054545;28;46948;-75
2023/04/09 10:36:56;;;;;;;;;17.25;15.00;;;;;15.54;48.60;101467.19;5072767;28;45906;-77
2023/04/09 10:39:30;;;;;;;;;23.25;19.00;;;;;15.61;47.76;101470.16;5054573;28;45884;-76
2023/04/09 10:41:57;;;;;;;;;15.50;14.50;;;;;15.66;47.78;101474.13;5054944;28;46065;-77
2023/04/09 10:44:27;;;;;;;;;18.50;17.00;;;;;15.71;47.31;101468.53;5072756;28;46412;-76
2023/04/09 10:46:54;;;;;;;;;18.00;15.00;;;;;15.77;47.07;101463.56;5072873;28;45896;-76
2023/04/09 10:49:23;;;;;;;;;17.75;16.75;;;;;15.83;47.29;101462.25;5072445;28;45579;-77
2023/04/09 10:51:53;;;;;;;;;19.50;16.75;;;;;15.85;47.38;101452.41;5072868;28;46522;-76
2023/04/09 10:54:34;;;;;;;;;18.00;17.00;;;;;15.97;47.41;101455.88;5088236;27;46180;-75
2023/04/09 10:57:13;;;;;;;;;21.75;19.25;;;;;15.98;46.87;101445.16;5072653;28;45753;-78
2023/04/09 10:59:40;;;;;;;;;20.75;18.75;;;;;16.05;46.49;101456.09;5071778;28;45950;-78
2023/04/09 11:02:30;;;;;;;;;19.25;15.75;;;;;16.12;46.43;101452.00;5072467;28;45781;-78
2023/04/09 11:05:08;;;;;;;;;26.25;20.25;;;;;16.19;46.29;101448.75;5072266;28;45621;-78
2023/04/09 11:07:40;;;;;;;;;18.50;17.75;;;;;16.24;45.75;101448.34;5072049;28;46042;-77
2023/04/09 11:10:08;;;;;;;;;15.00;14.50;;;;;16.27;45.23;101450.75;5071092;28;45885;-77
2023/04/09 11:12:34;;;;;;;;;23.00;21.00;;;;;16.30;45.05;101447.88;5053672;28;46878;-77
2023/04/09 11:14:59;;;;;;;;;20.25;19.75;;;;;16.25;44.97;101439.44;5072220;28;45693;-76
2023/04/09 11:17:25;;;;;;;;;18.00;16.75;;;;;16.35;45.13;101443.88;5053379;28;45750;-76
2023/04/09 11:19:55;;;;;;;;;1.00;0.00;;;;;16.41;44.24;101436.41;5054529;28;45774;-77
2023/04/09 11:22:20;;;;;;;;;8.50;8.25;;;;;16.58;44.27;101454.34;5072535;28;46453;-77
2023/04/09 11:24:46;;;;;;;;;11.00;10.00;;;;;16.66;43.56;101438.72;5071882;28;46252;-76
2023/04/09 11:27:12;;;;;;;;;14.50;12.50;;;;;16.66;42.84;101423.69;5071724;28;45837;-74
2023/04/09 11:33:00;;;;;;;;;16.25;14.75;;;;;16.86;43.49;101424.66;5070147;28;45771;-76
2023/04/09 11:35:26;;;;;;;;;14.75;14.50;;;;;16.91;43.11;101417.16;5071601;28;46294;-77
2023/04/09 11:37:53;;;;;;;;;24.00;20.25;;;;;16.97;43.39;101423.75;5070879;28;45790;-76
2023/04/09 11:40:21;;;;;;;;;17.50;17.00;;;;;17.03;43.29;101424.06;5072074;28;45936;-75
2023/04/09 11:42:49;;;;;;;;;19.25;17.00;;;;;17.06;42.92;101418.50;5071952;28;46746;-76
2023/04/09 11:45:18;;;;;;;;;17.25;16.00;;;;;17.08;42.93;101424.50;5071970;28;46052;-77
2023/04/09 11:47:45;;;;;;;;;17.00;13.75;;;;;17.16;42.81;101430.00;5070230;28;46000;-78
2023/04/09 11:50:12;;;;;;;;;16.50;15.75;;;;;17.19;43.28;101435.03;5071852;28;45929;-79
2023/04/09 11:52:39;;;;;;;;;17.50;15.50;;;;;17.22;42.47;101425.97;5072340;28;46621;-76
2023/04/09 11:55:06;;;;;;;;;18.75;17.75;;;;;17.24;42.65;101424.03;5071707;28;45614;-78
2023/04/09 12:03:55;;;;;;;;;18.00;16.00;;;;;17.42;42.22;101422.47;5071506;28;45504;-75
2023/04/09 12:06:23;;;;;;;;;16.00;13.75;;;;;17.43;42.01;101418.00;5071804;28;46251;-77
2023/04/09 12:08:58;;;;;;;;;14.75;13.50;;;;;17.53;42.78;101430.31;5053528;28;45790;-79
2023/04/09 12:11:28;;;;;;;;;13.75;13.00;;;;;17.48;42.63;101407.84;5071659;28;45758;-79
2023/04/09 12:14:05;;;;;;;;;13.00;13.00;;;;;17.67;41.43;101431.78;5071356;28;45708;-77
2023/04/09 12:16:34;;;;;;;;;15.25;12.25;;;;;17.69;41.86;101432.50;5071242;28;46247;-83
2023/04/09 12:19:05;;;;;;;;;14.25;13.00;;;;;17.64;41.66;101415.31;5071115;28;45789;-77
2023/04/09 12:21:51;;;;;;;;;16.75;13.50;;;;;17.78;41.42;101425.53;5074276;28;45888;-80
2023/04/09 12:24:18;;;;;;;;;17.00;16.00;;;;;17.85;41.70;101413.41;5075167;28;47332;-78
2023/04/09 12:26:45;;;;;;;;;18.00;15.25;;;;;17.93;41.67;101410.91;5074767;28;46450;-77
2023/04/09 12:29:12;;;;;;;;;17.75;17.00;;;;;17.99;41.50;101400.59;5074189;28;45971;-78
2023/04/09 12:31:38;;;;;;;;;15.00;14.25;;;;;18.02;41.36;101388.91;5075108;28;45821;-77
2023/04/09 12:34:03;;;;;;;;;14.25;13.50;;;;;18.07;41.23;101399.94;5056608;28;46588;-78
2023/04/09 12:36:29;;;;;;;;;14.25;14.00;;;;;18.16;41.27;101406.19;5074917;28;45892;-76
2023/04/09 12:38:54;;;;;;;;;18.75;15.00;;;;;18.20;40.74;101400.47;5074046;28;45677;-75
2023/04/09 12:41:20;;;;;;;;;16.50;13.00;;;;;18.28;40.49;101402.44;5074565;28;45629;-77
2023/04/09 12:43:46;;;;;;;;;14.75;13.00;;;;;18.29;40.62;101404.97;5074588;28;46508;-77
2023/04/09 12:46:12;;;;;;;;;15.50;13.00;;;;;18.33;39.95;101401.06;5074184;28;46635;-78
2023/04/09 12:48:37;;;;;;;;;16.00;13.25;;;;;18.34;39.99;101389.47;5074092;28;45688;-77
2023/04/09 12:51:03;;;;;;;;;14.75;13.25;;;;;18.33;39.04;101379.00;5074593;28;45895;-77